createdAt,value
2019-01-27T00:04:40.360Z,10.13
2019-01-27T00:09:41.979Z,10.93
2019-01-27T00:14:43.611Z,11.73
2019-01-27T00:19:45.642Z,10.87
2019-01-27T00:24:47.189Z,11.53
2019-01-27T00:29:48.744Z,11.67
2019-01-27T00:34:50.550Z,12.97
2019-01-27T00:39:52.072Z,11.77
2019-01-27T00:44:53.685Z,11.87
2019-01-27T00:49:57.140Z,11.43
2019-01-27T00:54:58.734Z,10.77
2019-01-27T01:00:00.721Z,11.30
2019-01-27T01:05:02.231Z,9.33
2019-01-27T01:10:05.010Z,10.03
2019-01-27T01:15:08.090Z,9.03
2019-01-27T01:20:15.079Z,10.37
2019-01-27T01:25:19.263Z,9.73
2019-01-27T01:30:23.378Z,8.80
2019-01-27T01:35:25.122Z,8.80
2019-01-27T01:40:26.673Z,8.50
2019-01-27T01:45:30.713Z,8.40
2019-01-27T01:50:32.258Z,7.67
2019-01-27T01:55:33.831Z,7.23
2019-01-27T02:00:35.879Z,7.97
2019-01-27T02:05:37.428Z,7.43
2019-01-27T02:10:38.999Z,6.93
2019-01-27T02:16:00.888Z,6.67
2019-01-27T02:21:03.360Z,6.40
2019-01-27T02:26:05.461Z,6.00
2019-01-27T02:31:06.980Z,6.23
2019-01-27T02:36:08.596Z,5.40
2019-01-27T02:41:10.139Z,5.37
2019-01-27T02:46:11.755Z,6.20
2019-01-27T02:51:13.675Z,6.47
2019-01-27T02:56:15.809Z,5.63
2019-01-27T03:01:17.347Z,5.80
2019-01-27T03:06:18.929Z,5.40
2019-01-27T03:11:20.504Z,5.50
2019-01-27T03:16:22.115Z,4.77
2019-01-27T03:21:23.676Z,5.43
2019-01-27T03:26:26.528Z,4.30
2019-01-27T03:31:28.073Z,4.57
2019-01-27T03:36:29.677Z,4.73
2019-01-27T03:41:31.173Z,4.20
2019-01-27T03:46:32.847Z,4.40
2019-01-27T03:51:34.427Z,3.90
2019-01-27T03:56:36.355Z,4.00
2019-01-27T04:01:37.954Z,4.27
2019-01-27T04:06:39.546Z,4.53
2019-01-27T04:11:41.046Z,3.93
2019-01-27T04:16:42.669Z,4.13
2019-01-27T04:21:44.191Z,5.00
2019-01-27T04:26:45.780Z,3.77
2019-01-27T04:31:47.537Z,3.70
2019-01-27T04:36:49.125Z,3.20
2019-01-27T04:41:50.697Z,3.30
2019-01-27T04:46:52.591Z,4.00
2019-01-27T04:51:54.182Z,3.60
2019-01-27T04:56:55.749Z,4.03
2019-01-27T05:01:57.759Z,4.50
2019-01-27T05:06:59.341Z,4.67
2019-01-27T05:12:00.875Z,4.03
2019-01-27T05:17:02.488Z,4.80
2019-01-27T05:22:04.068Z,5.23
2019-01-27T05:27:05.655Z,5.40
2019-01-27T05:32:08.999Z,5.00
2019-01-27T05:37:10.550Z,5.63
2019-01-27T05:42:12.178Z,5.30
2019-01-27T05:47:13.746Z,5.97
2019-01-27T05:52:15.293Z,4.70
2019-01-27T05:57:16.840Z,5.20
2019-01-27T06:02:18.406Z,5.17
2019-01-27T06:07:20.012Z,5.10
2019-01-27T06:12:21.575Z,4.93
2019-01-27T06:17:23.099Z,5.40
2019-01-27T06:22:24.658Z,5.00
2019-01-27T06:27:26.269Z,4.60
2019-01-27T06:32:28.201Z,5.23
2019-01-27T06:37:30.489Z,5.30
2019-01-27T06:42:32.090Z,5.07
2019-01-27T06:47:33.736Z,5.87
2019-01-27T06:52:35.304Z,6.40
2019-01-27T06:57:36.862Z,7.20
2019-01-27T07:02:38.450Z,6.20
2019-01-27T07:07:40.006Z,6.73
2019-01-27T07:12:41.563Z,5.60
2019-01-27T07:17:43.154Z,5.73
2019-01-27T07:22:44.690Z,5.97
2019-01-27T07:27:46.334Z,6.63
2019-01-27T07:32:47.891Z,7.23
2019-01-27T07:37:49.434Z,7.53
2019-01-27T07:42:51.644Z,5.93
2019-01-27T07:47:53.408Z,7.13
2019-01-27T07:52:54.942Z,6.93
2019-01-27T07:57:56.539Z,6.53
2019-01-27T08:02:58.096Z,7.07
2019-01-27T08:07:59.663Z,7.13
2019-01-27T08:13:01.598Z,7.40
2019-01-27T08:18:03.233Z,5.73
2019-01-27T08:23:05.751Z,5.73
2019-01-27T08:28:07.377Z,5.73
2019-01-27T08:33:09.294Z,5.30
2019-01-27T08:38:10.891Z,4.40
2019-01-27T08:43:12.591Z,4.10
2019-01-27T08:48:14.238Z,5.33
2019-01-27T08:53:15.904Z,5.30
2019-01-27T08:58:17.597Z,5.00
2019-01-27T09:03:21.014Z,6.27
2019-01-27T09:08:23.155Z,5.57
2019-01-27T09:13:25.195Z,6.00
2019-01-27T09:18:26.974Z,6.27
2019-01-27T09:23:28.572Z,6.23
2019-01-27T09:28:30.192Z,6.00
2019-01-27T09:33:32.522Z,5.87
2019-01-27T09:38:34.154Z,6.07
2019-01-27T09:43:36.023Z,5.97
2019-01-27T09:48:37.699Z,5.73
2019-01-27T09:53:39.363Z,6.50
2019-01-27T09:58:41.041Z,6.40
2019-01-27T10:03:42.633Z,6.30
2019-01-27T10:08:44.285Z,7.20
2019-01-27T10:13:45.980Z,7.13
2019-01-27T10:18:47.548Z,7.20
2019-01-27T10:23:49.148Z,7.30
2019-01-27T10:28:50.861Z,7.53
2019-01-27T10:33:52.375Z,5.67
2019-01-27T10:38:53.993Z,3.93
2019-01-27T10:43:56.183Z,3.80
2019-01-27T10:48:59.121Z,3.20
2019-01-27T10:54:00.750Z,2.27
2019-01-27T10:59:02.518Z,2.70
2019-01-27T11:04:04.622Z,4.00
2019-01-27T11:09:07.300Z,4.80
2019-01-27T11:14:09.022Z,5.30
2019-01-27T11:19:10.566Z,5.87
2019-01-27T11:24:12.181Z,5.83
2019-01-27T11:29:13.837Z,6.43
2019-01-27T11:34:15.389Z,6.20
2019-01-27T11:39:17.034Z,4.17
2019-01-27T11:44:18.619Z,2.60
2019-01-27T11:49:20.625Z,2.50
2019-01-27T11:54:22.616Z,2.40
2019-01-27T11:59:24.205Z,2.27
2019-01-27T12:04:26.072Z,2.67
2019-01-27T12:09:28.699Z,2.93
2019-01-27T12:14:30.953Z,3.43
2019-01-27T12:19:32.684Z,3.30
2019-01-27T12:24:34.703Z,3.87
2019-01-27T12:29:37.398Z,3.23
2019-01-27T12:34:39.055Z,3.47
2019-01-27T12:39:41.790Z,18.50
2019-01-27T12:44:43.337Z,2.17
2019-01-27T12:49:45.001Z,3.20
2019-01-27T12:54:48.381Z,2.30
2019-01-27T12:59:51.008Z,2.20
2019-01-27T13:04:52.622Z,2.37
2019-01-27T13:09:54.389Z,2.27
2019-01-27T13:14:55.970Z,2.70
2019-01-27T13:19:57.598Z,3.17
2019-01-27T13:24:59.244Z,3.50
2019-01-27T13:30:00.833Z,3.37
2019-01-27T13:35:02.826Z,2.83
2019-01-27T13:40:08.156Z,3.27
2019-01-27T13:45:12.181Z,4.23
2019-01-27T13:50:14.002Z,3.07
2019-01-27T13:55:21.883Z,3.00
2019-01-27T14:00:34.325Z,3.07
2019-01-27T14:05:35.882Z,3.17
2019-01-27T14:10:37.475Z,3.30
2019-01-27T14:15:39.136Z,4.10
2019-01-27T14:20:41.033Z,2.80
2019-01-27T14:25:43.851Z,3.03
2019-01-27T14:30:45.403Z,3.37
2019-01-27T14:35:48.440Z,3.20
2019-01-27T14:40:51.157Z,2.70
2019-01-27T14:45:52.742Z,2.93
2019-01-27T14:50:54.695Z,4.73
2019-01-27T14:55:56.307Z,3.07
2019-01-27T15:00:58.161Z,3.70
2019-01-27T15:05:59.789Z,3.40
2019-01-27T15:11:01.677Z,3.53
2019-01-27T15:16:03.287Z,2.97
2019-01-27T15:21:09.474Z,2.07
2019-01-27T15:26:12.904Z,4.53
2019-01-27T15:31:16.881Z,2.70
2019-01-27T15:36:19.604Z,2.40
2019-01-27T15:41:21.850Z,2.87
2019-01-27T15:46:23.883Z,3.63
2019-01-27T15:51:27.241Z,2.57
2019-01-27T15:56:30.758Z,2.10
2019-01-27T16:01:32.432Z,2.27
2019-01-27T16:06:34.089Z,2.97
2019-01-27T16:11:35.852Z,2.93
2019-01-27T16:16:37.882Z,3.17
2019-01-27T16:21:39.588Z,2.93
2019-01-27T16:26:41.328Z,3.17
2019-01-27T16:31:43.260Z,3.37
2019-01-27T16:36:47.213Z,4.50
2019-01-27T16:41:50.954Z,3.10
2019-01-27T16:46:54.507Z,3.20
2019-01-27T16:51:57.078Z,4.23
2019-01-27T16:56:59.107Z,3.50
2019-01-27T17:02:00.726Z,3.73
2019-01-27T17:07:02.477Z,2.77
2019-01-27T17:12:04.130Z,2.97
2019-01-27T17:17:05.904Z,3.00
2019-01-27T17:22:07.532Z,3.17
2019-01-27T17:27:10.637Z,3.07
2019-01-27T17:32:12.249Z,3.80
2019-01-27T17:37:14.986Z,3.47
2019-01-27T17:42:16.871Z,3.17
2019-01-27T17:47:22.698Z,3.50
2019-01-27T17:52:24.466Z,3.97
2019-01-27T17:57:26.544Z,3.77
2019-01-27T18:02:28.245Z,3.37
2019-01-27T18:07:29.917Z,3.23
2019-01-27T18:12:34.966Z,3.47
2019-01-27T18:17:37.073Z,3.50
2019-01-27T18:22:39.000Z,3.23
2019-01-27T18:27:40.844Z,3.30
2019-01-27T18:32:42.725Z,3.20
2019-01-27T18:37:44.940Z,3.63
2019-01-27T18:42:46.689Z,3.87
2019-01-27T18:47:48.532Z,4.13
2019-01-27T18:52:50.224Z,3.17
2019-01-27T18:57:52.566Z,3.13
2019-01-27T19:02:57.547Z,3.37
2019-01-27T19:08:01.576Z,2.60
2019-01-27T19:13:04.583Z,3.10
2019-01-27T19:18:07.202Z,2.43
2019-01-27T19:23:09.478Z,2.57
2019-01-27T19:28:11.323Z,2.70
2019-01-27T19:33:16.546Z,2.50
2019-01-27T19:38:21.224Z,2.93
2019-01-27T19:43:23.440Z,3.07
2019-01-27T19:48:31.521Z,2.67
2019-01-27T19:53:35.031Z,2.50
2019-01-27T19:58:39.573Z,2.67
2019-01-27T20:03:42.838Z,3.17
2019-01-27T20:08:47.679Z,3.07
2019-01-27T20:13:51.421Z,2.63
2019-01-27T20:18:53.167Z,2.50
2019-01-27T20:23:55.357Z,3.87
2019-01-27T20:28:58.027Z,2.97
2019-01-27T20:33:59.607Z,2.73
2019-01-27T20:39:01.799Z,1.97
2019-01-27T20:44:05.421Z,2.63
2019-01-27T20:49:08.894Z,2.30
2019-01-27T20:54:10.751Z,2.77
2019-01-27T20:59:14.195Z,2.60
2019-01-27T21:04:15.873Z,2.20
2019-01-27T21:09:17.767Z,2.87
2019-01-27T21:14:20.938Z,2.67
2019-01-27T21:19:24.024Z,2.63
2019-01-27T21:24:25.769Z,2.87
2019-01-27T21:29:27.390Z,2.77
2019-01-27T21:34:28.998Z,3.03
2019-01-27T21:39:31.638Z,3.00
2019-01-27T21:44:33.296Z,2.87
2019-01-27T21:49:34.972Z,3.40
2019-01-27T21:54:36.668Z,3.20
2019-01-27T21:59:38.983Z,3.80
2019-01-27T22:04:40.706Z,3.83
2019-01-27T22:09:42.322Z,3.23
2019-01-27T22:14:45.070Z,4.23
2019-01-27T22:19:46.660Z,4.40
2019-01-27T22:24:49.598Z,3.60
2019-01-27T22:29:51.693Z,3.97
2019-01-27T22:34:53.246Z,4.03
2019-01-27T22:39:54.857Z,3.67
2019-01-27T22:44:56.552Z,2.97
2019-01-27T22:49:58.113Z,3.47
2019-01-27T22:54:59.729Z,4.00
2019-01-27T23:00:03.484Z,4.10
2019-01-27T23:05:05.349Z,3.20
2019-01-27T23:10:06.919Z,2.60
2019-01-27T23:15:08.558Z,3.00
2019-01-27T23:20:10.262Z,2.33
2019-01-27T23:25:11.852Z,2.10
2019-01-27T23:30:13.454Z,2.30
2019-01-27T23:35:15.006Z,1.30
2019-01-27T23:40:16.593Z,1.40
2019-01-27T23:45:18.162Z,1.53
2019-01-27T23:50:20.548Z,1.57
2019-01-27T23:55:22.115Z,1.70
